createdAt,value
2022-07-30T00:00:42.510Z,100119.34
2022-07-30T00:03:13.856Z,100122.03
2022-07-30T00:05:43.196Z,100128.22
2022-07-30T00:08:13.883Z,100120.47
2022-07-30T00:10:43.920Z,100115.44
2022-07-30T00:13:15.295Z,100110.13
2022-07-30T00:15:44.489Z,100117.94
2022-07-30T00:18:16.028Z,100119.78
2022-07-30T00:20:45.770Z,100112.91
2022-07-30T00:23:15.661Z,100122.56
2022-07-30T00:25:45.250Z,100106.31
2022-07-30T00:28:14.401Z,100119.25
2022-07-30T00:30:43.678Z,100115.91
2022-07-30T00:33:15.039Z,100121.78
2022-07-30T00:35:45.273Z,100121.84
2022-07-30T00:38:15.390Z,100107.19
2022-07-30T00:40:44.657Z,100111.72
2022-07-30T00:43:18.158Z,100122.22
2022-07-30T00:45:47.453Z,100111.91
2022-07-30T00:48:18.993Z,100105.97
2022-07-30T00:50:48.214Z,100108.63
2022-07-30T00:53:17.751Z,100120.75
2022-07-30T00:55:47.025Z,100118.16
2022-07-30T00:58:16.317Z,100112.19
2022-07-30T01:00:46.122Z,100108.66
2022-07-30T01:03:15.307Z,100114.78
2022-07-30T01:05:46.396Z,100114.91
2022-07-30T01:08:16.394Z,100115.84
2022-07-30T01:10:47.067Z,100109.81
2022-07-30T01:13:16.354Z,100107.88
2022-07-30T01:15:45.977Z,100113.91
2022-07-30T01:18:17.729Z,100113.06
2022-07-30T01:20:50.009Z,100104.22
2022-07-30T01:23:27.182Z,100092.34
2022-07-30T01:26:03.888Z,100099.19
2022-07-30T01:28:38.518Z,100106.09
2022-07-30T01:31:13.376Z,100113.09
2022-07-30T01:33:46.333Z,100103.75
2022-07-30T01:36:19.954Z,100111.59
2022-07-30T01:38:53.096Z,100101.31
2022-07-30T01:41:26.021Z,100102.91
2022-07-30T01:43:56.628Z,100106.41
2022-07-30T01:46:27.218Z,100112.44
2022-07-30T01:48:59.281Z,100112.22
2022-07-30T01:51:37.408Z,100087.13
2022-07-30T01:54:10.126Z,100104.06
2022-07-30T01:56:44.947Z,100113.41
2022-07-30T01:59:16.746Z,100115.03
2022-07-30T02:01:52.071Z,100107.22
2022-07-30T02:04:21.681Z,100115.84
2022-07-30T02:06:59.708Z,100116.53
2022-07-30T02:09:36.140Z,100120.72
2022-07-30T02:12:32.026Z,100116.28
2022-07-30T02:15:16.946Z,100119.81
2022-07-30T02:17:56.794Z,100116.28
2022-07-30T02:20:31.288Z,100112.81
2022-07-30T02:23:05.039Z,100116.28
2022-07-30T02:25:38.825Z,100098.28
2022-07-30T02:28:13.387Z,100116.16
2022-07-30T02:30:49.009Z,100122.06
2022-07-30T02:33:21.225Z,100114.97
2022-07-30T02:35:57.221Z,100119.00
2022-07-30T02:38:28.746Z,100124.88
2022-07-30T02:41:01.127Z,100132.63
2022-07-30T02:43:36.142Z,100130.81
2022-07-30T02:46:07.943Z,100133.47
2022-07-30T02:48:59.395Z,100122.28
2022-07-30T02:51:29.486Z,100141.78
2022-07-30T02:54:00.516Z,100137.56
2022-07-30T02:56:31.327Z,100134.91
2022-07-30T02:59:05.272Z,100139.28
2022-07-30T03:01:35.956Z,100136.56
2022-07-30T03:04:06.990Z,100127.94
2022-07-30T03:06:38.215Z,100121.88
2022-07-30T03:09:07.697Z,100128.50
2022-07-30T03:11:39.257Z,100137.00
2022-07-30T03:14:10.832Z,100139.38
2022-07-30T03:16:43.838Z,100141.94
2022-07-30T03:19:14.445Z,100143.38
2022-07-30T03:21:44.535Z,100145.00
2022-07-30T03:24:15.891Z,100140.53
2022-07-30T03:26:46.573Z,100151.66
2022-07-30T03:29:22.182Z,100149.88
2022-07-30T03:31:52.568Z,100132.56
2022-07-30T03:34:24.608Z,100153.97
2022-07-30T03:36:54.655Z,100145.28
2022-07-30T03:39:25.017Z,100155.50
2022-07-30T03:41:55.683Z,100149.25
2022-07-30T03:44:29.761Z,100120.09
2022-07-30T03:47:03.629Z,100137.97
2022-07-30T03:49:36.900Z,100150.84
2022-07-30T03:52:09.078Z,100150.97
2022-07-30T03:54:38.785Z,100154.94
2022-07-30T03:57:28.868Z,100142.41
2022-07-30T04:00:00.369Z,100154.88
2022-07-30T04:02:29.574Z,100148.56
2022-07-30T04:05:24.849Z,100139.19
2022-07-30T04:07:55.551Z,100157.97
2022-07-30T04:10:25.999Z,100157.09
2022-07-30T04:13:01.139Z,100148.53
2022-07-30T04:16:05.740Z,100155.84
2022-07-30T04:18:36.742Z,100166.19
2022-07-30T04:21:17.237Z,100152.91
2022-07-30T04:24:03.250Z,100145.88
2022-07-30T04:26:38.138Z,100160.22
2022-07-30T04:29:09.588Z,100163.38
2022-07-30T04:31:45.916Z,100166.47
2022-07-30T04:34:48.563Z,100165.56
2022-07-30T04:37:24.424Z,100163.84
2022-07-30T04:39:56.285Z,100168.19
2022-07-30T04:42:25.776Z,100162.63
2022-07-30T04:45:12.389Z,100157.31
2022-07-30T04:47:55.290Z,100165.16
2022-07-30T04:50:44.746Z,100165.78
2022-07-30T04:53:19.239Z,100170.72
2022-07-30T04:55:56.229Z,100173.34
2022-07-30T04:58:30.367Z,100177.81
2022-07-30T05:01:01.541Z,100181.22
2022-07-30T05:03:37.327Z,100180.06
2022-07-30T05:06:08.480Z,100174.56
2022-07-30T05:08:41.600Z,100173.97
2022-07-30T05:11:14.736Z,100164.53
2022-07-30T05:13:46.108Z,100178.72
2022-07-30T05:16:17.773Z,100164.56
2022-07-30T05:18:49.500Z,100174.56
2022-07-30T05:21:18.802Z,100171.00
2022-07-30T05:23:50.875Z,100168.31
2022-07-30T05:26:32.495Z,100171.53
2022-07-30T05:29:04.113Z,100166.91
2022-07-30T05:31:50.643Z,100165.78
2022-07-30T05:34:23.042Z,100172.13
2022-07-30T05:36:54.236Z,100168.44
2022-07-30T05:39:24.146Z,100169.81
2022-07-30T05:42:12.092Z,100163.47
2022-07-30T05:44:49.497Z,100172.66
2022-07-30T05:47:20.745Z,100170.19
2022-07-30T05:49:54.697Z,100177.50
2022-07-30T05:52:25.077Z,100180.13
2022-07-30T05:54:59.353Z,100175.69
2022-07-30T05:57:52.734Z,100173.97
2022-07-30T06:00:22.594Z,100181.97
2022-07-30T06:02:55.502Z,100178.63
2022-07-30T06:05:46.684Z,100181.69
2022-07-30T06:08:16.058Z,100182.19
2022-07-30T06:10:45.300Z,100168.53
2022-07-30T06:13:14.986Z,100175.78
2022-07-30T06:15:44.307Z,100174.38
2022-07-30T06:18:13.589Z,100180.72
2022-07-30T06:20:51.860Z,100167.47
2022-07-30T06:23:40.022Z,100143.25
2022-07-30T06:26:20.017Z,100160.09
2022-07-30T06:28:49.538Z,100162.81
2022-07-30T06:31:24.805Z,100160.25
2022-07-30T06:33:54.677Z,100164.19
2022-07-30T06:36:26.816Z,100165.41
2022-07-30T06:39:04.891Z,100159.72
2022-07-30T06:41:57.355Z,100167.22
2022-07-30T06:44:31.163Z,100158.06
2022-07-30T06:47:25.782Z,100169.44
2022-07-30T06:49:56.637Z,100173.00
2022-07-30T06:52:28.838Z,100169.44
2022-07-30T06:54:58.779Z,100152.06
2022-07-30T06:57:50.822Z,100160.22
2022-07-30T07:00:49.162Z,100151.31
2022-07-30T07:03:18.859Z,100165.78
2022-07-30T07:05:49.858Z,100164.88
2022-07-30T07:08:21.401Z,100168.81
2022-07-30T07:10:58.428Z,100167.91
2022-07-30T07:13:32.938Z,100164.56
2022-07-30T07:16:04.814Z,100146.75
2022-07-30T07:18:34.491Z,100170.72
2022-07-30T07:21:07.936Z,100176.97
2022-07-30T07:23:41.992Z,100169.88
2022-07-30T07:26:32.893Z,100170.84
2022-07-30T07:29:05.254Z,100156.91
2022-07-30T07:32:06.390Z,100154.44
2022-07-30T07:34:25.563Z,100177.50
2022-07-30T07:36:55.389Z,100174.41
2022-07-30T07:39:27.556Z,100154.81
2022-07-30T07:41:57.958Z,100165.63
2022-07-30T07:44:29.910Z,100152.75
2022-07-30T07:46:59.920Z,100163.91
2022-07-30T07:49:34.281Z,100155.81
2022-07-30T07:52:04.221Z,100136.72
2022-07-30T07:54:37.345Z,100150.59
2022-07-30T07:57:10.561Z,100133.66
2022-07-30T07:59:44.734Z,100146.00
2022-07-30T08:02:22.016Z,100154.94
2022-07-30T08:05:00.520Z,100140.63
2022-07-30T08:07:38.893Z,100156.53
2022-07-30T08:10:36.395Z,100140.88
2022-07-30T08:13:51.458Z,100156.50
2022-07-30T08:16:32.379Z,100152.25
2022-07-30T08:19:11.722Z,100153.69
2022-07-30T08:21:43.459Z,100142.88
2022-07-30T08:24:12.922Z,100146.88
2022-07-30T08:26:45.479Z,100131.88
2022-07-30T08:29:17.240Z,100133.09
2022-07-30T08:31:48.510Z,100112.53
2022-07-30T08:34:19.885Z,100139.16
2022-07-30T08:36:55.836Z,100139.41
2022-07-30T08:39:25.376Z,100132.34
2022-07-30T08:41:57.262Z,100126.09
2022-07-30T08:44:28.452Z,100135.22
2022-07-30T08:47:00.781Z,100123.94
2022-07-30T08:49:53.260Z,100121.59
2022-07-30T08:52:27.307Z,100127.81
2022-07-30T08:55:03.965Z,100112.31
2022-07-30T08:57:36.453Z,100113.31
2022-07-30T09:00:09.115Z,100124.28
2022-07-30T09:02:38.452Z,100109.81
2022-07-30T09:05:11.193Z,100108.91
2022-07-30T09:07:41.206Z,100104.16
2022-07-30T09:10:16.983Z,100112.94
2022-07-30T09:12:49.831Z,100108.19
2022-07-30T09:15:20.831Z,100102.94
2022-07-30T09:17:57.201Z,100115.13
2022-07-30T09:20:30.813Z,100098.63
2022-07-30T09:23:02.862Z,100097.31
2022-07-30T09:26:07.558Z,100109.97
2022-07-30T09:29:17.750Z,100106.97
2022-07-30T09:32:07.464Z,100113.59
2022-07-30T09:35:17.881Z,100120.22
2022-07-30T09:38:23.493Z,100118.03
2022-07-30T09:40:57.242Z,100121.59
2022-07-30T09:43:52.042Z,100123.66
2022-07-30T09:46:51.377Z,100122.72
2022-07-30T09:49:29.356Z,100121.19
2022-07-30T09:51:59.475Z,100123.47
2022-07-30T09:54:51.053Z,100120.69
2022-07-30T09:57:27.792Z,100091.78
2022-07-30T10:00:19.846Z,100120.63
2022-07-30T10:03:34.216Z,100121.75
2022-07-30T10:06:38.001Z,100121.56
2022-07-30T10:09:50.746Z,100115.69
2022-07-30T10:12:23.988Z,100112.31
2022-07-30T10:14:57.001Z,100101.06
2022-07-30T10:17:26.711Z,100109.16
2022-07-30T10:20:22.289Z,100121.47
2022-07-30T10:23:10.278Z,100110.38
2022-07-30T10:26:04.458Z,100113.19
2022-07-30T10:28:43.629Z,100107.97
2022-07-30T10:31:49.088Z,100114.56
2022-07-30T10:34:03.956Z,100110.94
2022-07-30T10:36:37.418Z,100079.50
2022-07-30T10:39:09.384Z,100082.00
2022-07-30T10:41:53.995Z,100108.84
2022-07-30T10:44:47.418Z,100099.53
2022-07-30T10:47:19.436Z,100111.44
2022-07-30T10:50:07.184Z,100108.03
2022-07-30T10:52:53.615Z,100097.53
2022-07-30T10:55:36.931Z,100102.91
2022-07-30T10:58:10.668Z,100101.88
2022-07-30T11:01:00.903Z,100084.06
2022-07-30T11:03:41.275Z,100100.75
2022-07-30T11:06:28.888Z,100083.34
2022-07-30T11:09:01.510Z,100095.22
2022-07-30T11:12:01.335Z,100090.28
2022-07-30T11:15:06.673Z,100094.22
2022-07-30T11:18:15.185Z,100094.75
2022-07-30T11:20:48.710Z,100092.00
2022-07-30T11:23:40.531Z,100094.78
2022-07-30T11:26:14.283Z,100092.25
2022-07-30T11:28:46.220Z,100089.59
2022-07-30T11:31:56.615Z,100085.84
2022-07-30T11:34:30.969Z,100086.84
2022-07-30T11:37:31.776Z,100084.09
2022-07-30T11:40:12.411Z,100091.75
2022-07-30T11:42:44.603Z,100087.31
2022-07-30T11:45:34.086Z,100084.56
2022-07-30T11:48:03.363Z,100079.38
2022-07-30T11:50:34.706Z,100084.78
2022-07-30T11:53:05.794Z,100085.84
2022-07-30T11:55:38.409Z,100078.41
2022-07-30T11:58:11.805Z,100070.03
2022-07-30T12:00:47.320Z,100072.47
2022-07-30T12:03:18.001Z,100072.66
2022-07-30T12:05:51.131Z,100070.00
2022-07-30T12:08:32.760Z,100069.19
2022-07-30T12:11:06.694Z,100073.50
2022-07-30T12:13:43.461Z,100073.53
2022-07-30T12:16:18.083Z,100066.56
2022-07-30T12:18:47.934Z,100059.44
2022-07-30T12:21:17.536Z,100048.75
2022-07-30T12:23:56.610Z,100066.06
2022-07-30T12:26:28.402Z,100047.38
2022-07-30T12:29:03.139Z,100063.13
2022-07-30T12:31:38.498Z,100052.16
2022-07-30T12:34:22.674Z,100055.16
2022-07-30T12:36:52.005Z,100059.81
2022-07-30T12:39:22.646Z,100059.06
2022-07-30T12:41:53.642Z,100053.03
2022-07-30T12:44:42.216Z,100034.41
2022-07-30T12:47:25.837Z,100051.66
2022-07-30T12:49:56.207Z,100058.03
2022-07-30T12:58:02.854Z,100066.34
2022-07-30T13:00:52.397Z,100051.63
2022-07-30T13:03:24.714Z,100063.91
2022-07-30T13:05:56.126Z,100054.47
2022-07-30T13:08:50.105Z,100043.50
2022-07-30T13:11:20.758Z,100046.13
2022-07-30T13:13:52.837Z,100046.53
2022-07-30T13:16:23.156Z,100050.44
2022-07-30T13:18:52.923Z,100046.13
2022-07-30T13:21:22.071Z,100029.22
2022-07-30T13:23:54.123Z,100036.66
2022-07-30T13:26:23.621Z,100037.56
2022-07-30T13:28:58.662Z,100025.28
2022-07-30T13:31:42.808Z,100042.75
2022-07-30T13:34:13.215Z,100036.28
2022-07-30T13:36:42.604Z,100040.69
2022-07-30T13:39:12.877Z,100039.53
2022-07-30T13:41:43.413Z,100043.16
2022-07-30T13:44:14.614Z,100053.22
2022-07-30T13:46:43.883Z,100047.13
2022-07-30T13:49:13.127Z,100043.38
2022-07-30T13:51:42.415Z,100050.50
2022-07-30T13:54:13.863Z,100042.09
2022-07-30T13:56:43.853Z,100029.28
2022-07-30T13:59:15.054Z,100047.88
2022-07-30T14:01:44.468Z,100027.09
2022-07-30T14:04:13.739Z,100052.00
2022-07-30T14:06:43.928Z,100030.84
2022-07-30T14:09:13.119Z,100042.47
2022-07-30T14:11:42.229Z,100036.41
2022-07-30T14:14:11.588Z,100032.22
2022-07-30T14:16:45.461Z,100041.94
2022-07-30T14:19:23.140Z,100027.16
2022-07-30T14:21:55.323Z,100038.25
2022-07-30T14:24:24.779Z,100030.56
2022-07-30T14:26:57.943Z,100013.13
2022-07-30T14:29:27.963Z,100019.34
2022-07-30T14:32:01.610Z,99986.75
2022-07-30T14:34:30.954Z,100004.13
2022-07-30T14:37:00.444Z,100007.78
2022-07-30T14:39:29.909Z,100012.78
2022-07-30T14:41:59.164Z,99977.81
2022-07-30T14:44:28.425Z,100006.38
2022-07-30T14:46:59.581Z,100013.00
2022-07-30T14:49:29.093Z,99991.75
2022-07-30T14:51:58.539Z,99990.69
2022-07-30T14:54:27.842Z,100000.09
2022-07-30T14:56:58.537Z,100004.84
2022-07-30T14:59:30.187Z,100002.78
2022-07-30T15:02:01.374Z,100000.94
2022-07-30T15:04:30.837Z,100003.75
2022-07-30T15:07:00.071Z,100004.97
2022-07-30T15:09:30.286Z,100007.41
2022-07-30T15:12:22.743Z,99997.63
2022-07-30T15:14:53.771Z,99982.03
2022-07-30T15:17:26.100Z,99998.25
2022-07-30T15:19:55.867Z,99991.84
2022-07-30T15:22:25.560Z,99985.25
2022-07-30T15:24:54.914Z,99990.06
2022-07-30T15:27:33.190Z,99988.94
2022-07-30T15:30:03.506Z,99999.28
2022-07-30T15:32:35.611Z,99995.28
2022-07-30T15:35:04.933Z,99981.34
2022-07-30T15:37:34.051Z,99999.59
2022-07-30T15:40:03.468Z,99996.28
2022-07-30T15:42:32.947Z,99987.28
2022-07-30T15:45:17.221Z,99992.38
2022-07-30T15:47:49.948Z,99974.94
2022-07-30T15:50:19.541Z,99985.72
2022-07-30T15:52:50.006Z,99988.84
2022-07-30T15:55:19.354Z,99989.84
2022-07-30T15:57:49.325Z,99994.59
2022-07-30T16:00:18.969Z,99985.81
2022-07-30T16:02:50.231Z,99983.94
2022-07-30T16:05:19.567Z,99991.94
2022-07-30T16:07:49.000Z,99972.81
2022-07-30T16:10:18.376Z,99976.00
2022-07-30T16:12:47.614Z,99985.66
2022-07-30T16:15:16.942Z,99975.41
2022-07-30T16:17:46.278Z,99977.31
2022-07-30T16:20:17.454Z,99979.47
2022-07-30T16:22:47.013Z,99976.59
2022-07-30T16:25:16.284Z,99976.19
2022-07-30T16:27:45.546Z,99982.22
2022-07-30T16:30:15.181Z,99982.09
2022-07-30T16:32:44.503Z,99981.94
2022-07-30T16:35:13.702Z,99988.00
2022-07-30T16:37:44.923Z,99978.16
2022-07-30T16:40:15.170Z,99989.97
2022-07-30T16:42:46.982Z,99979.81
2022-07-30T16:45:17.410Z,99992.34
2022-07-30T16:47:48.062Z,99987.19
2022-07-30T16:50:17.415Z,99995.81
2022-07-30T16:52:48.760Z,100002.78
2022-07-30T16:55:17.736Z,100001.84
2022-07-30T16:57:46.893Z,100004.59
2022-07-30T17:00:17.832Z,99999.63
2022-07-30T17:02:47.134Z,99995.31
2022-07-30T17:05:16.259Z,100002.81
2022-07-30T17:07:47.484Z,100005.66
2022-07-30T17:10:16.766Z,100005.16
2022-07-30T17:12:57.184Z,100001.56
2022-07-30T17:15:32.471Z,100013.53
2022-07-30T17:18:02.562Z,100010.09
2022-07-30T17:20:33.728Z,100011.13
2022-07-30T17:23:05.213Z,100005.28
2022-07-30T17:25:34.554Z,100015.00
2022-07-30T17:28:04.022Z,100017.28
2022-07-30T17:30:33.460Z,100013.19
2022-07-30T17:33:04.452Z,100015.38
2022-07-30T17:35:36.207Z,100021.50
2022-07-30T17:38:09.082Z,100027.22
2022-07-30T17:40:38.277Z,100025.41
2022-07-30T17:43:07.493Z,100022.88
2022-07-30T17:45:38.048Z,100031.19
2022-07-30T17:48:08.477Z,100024.75
2022-07-30T17:50:38.771Z,100028.75
2022-07-30T17:53:10.016Z,100026.81
2022-07-30T17:55:39.480Z,100022.53
2022-07-30T17:58:08.575Z,100035.81
2022-07-30T18:00:37.993Z,100020.34
2022-07-30T18:03:07.235Z,100034.13
2022-07-30T18:05:36.702Z,100034.69
2022-07-30T18:08:06.442Z,100041.28
2022-07-30T18:10:37.565Z,100041.50
2022-07-30T18:13:27.052Z,100047.88
2022-07-30T18:15:57.766Z,100048.53
2022-07-30T18:18:27.460Z,100042.56
2022-07-30T18:20:56.745Z,100035.66
2022-07-30T18:23:26.075Z,100040.88
2022-07-30T18:26:06.378Z,100048.03
2022-07-30T18:28:36.504Z,100048.09
2022-07-30T18:31:06.594Z,100046.25
2022-07-30T18:33:35.908Z,100044.41
2022-07-30T18:36:13.483Z,100044.56
2022-07-30T18:38:42.713Z,100054.75
2022-07-30T18:41:13.883Z,100055.59
2022-07-30T18:43:47.711Z,100053.59
2022-07-30T18:46:17.989Z,100051.59
2022-07-30T18:48:48.155Z,100055.28
2022-07-30T18:51:18.267Z,100053.88
2022-07-30T18:53:47.430Z,100030.16
2022-07-30T18:56:18.498Z,100043.88
2022-07-30T18:58:47.813Z,100057.78
2022-07-30T19:01:17.909Z,100062.03
2022-07-30T19:03:47.497Z,100003.47
2022-07-30T19:06:16.758Z,100063.28
2022-07-30T19:08:50.786Z,100061.00
2022-07-30T19:11:22.413Z,100064.66
2022-07-30T19:13:51.700Z,100058.03
2022-07-30T19:16:20.831Z,100071.00
2022-07-30T19:18:50.091Z,100067.47
2022-07-30T19:21:19.339Z,100063.94
2022-07-30T19:23:48.650Z,100062.00
2022-07-30T19:26:18.624Z,100064.63
2022-07-30T19:28:50.605Z,100057.88
2022-07-30T19:31:19.951Z,100061.75
2022-07-30T19:33:49.863Z,100055.88
2022-07-30T19:36:20.620Z,100044.59
2022-07-30T19:38:50.148Z,100043.25
2022-07-30T19:41:19.699Z,100064.19
2022-07-30T19:43:55.861Z,100064.31
2022-07-30T19:46:28.297Z,100054.66
2022-07-30T19:48:59.434Z,100057.50
2022-07-30T19:52:09.473Z,100066.41
2022-07-30T19:54:18.225Z,100053.97
2022-07-30T19:56:47.360Z,100064.44
2022-07-30T19:59:19.139Z,100058.34
2022-07-30T20:02:08.518Z,100055.59
2022-07-30T20:04:39.382Z,100037.31
2022-07-30T20:07:12.954Z,100064.09
2022-07-30T20:09:44.491Z,100058.56
2022-07-30T20:12:14.184Z,100072.56
2022-07-30T20:14:45.405Z,100070.16
2022-07-30T20:17:15.358Z,100073.88
2022-07-30T20:19:48.106Z,100068.09
2022-07-30T20:22:18.555Z,100062.31
2022-07-30T20:24:49.238Z,100065.19
2022-07-30T20:27:37.345Z,100065.03
2022-07-30T20:30:12.266Z,100068.50
2022-07-30T20:32:46.401Z,100068.06
2022-07-30T20:35:16.860Z,100056.22
2022-07-30T20:37:54.713Z,100067.38
2022-07-30T20:40:26.982Z,100076.44
2022-07-30T20:42:57.111Z,100089.09
2022-07-30T20:45:40.394Z,100082.63
2022-07-30T20:48:17.086Z,100084.28
2022-07-30T20:50:49.197Z,100082.59
2022-07-30T20:53:19.421Z,100080.50
2022-07-30T20:55:50.015Z,100077.03
2022-07-30T20:58:20.832Z,100071.44
2022-07-30T21:00:54.502Z,100079.13
2022-07-30T21:03:24.172Z,100074.63
2022-07-30T21:05:55.619Z,100060.66
2022-07-30T21:08:25.300Z,100077.28
2022-07-30T21:10:55.568Z,100077.59
2022-07-30T21:13:26.054Z,100082.47
2022-07-30T21:16:02.811Z,100082.13
2022-07-30T21:18:33.526Z,100087.38
2022-07-30T21:21:05.695Z,100092.72
2022-07-30T21:23:35.682Z,100085.03
2022-07-30T21:26:13.401Z,100087.66
2022-07-30T21:28:43.274Z,100087.66
2022-07-30T21:31:14.465Z,100081.00
2022-07-30T21:33:43.857Z,100087.69
2022-07-30T21:36:15.135Z,100092.69
2022-07-30T21:38:44.985Z,100084.50
2022-07-30T21:41:15.104Z,100086.41
2022-07-30T21:43:45.554Z,100086.41
2022-07-30T21:46:24.928Z,100090.03
2022-07-30T21:48:59.290Z,100086.13
2022-07-30T21:51:28.774Z,100083.84
2022-07-30T21:53:59.666Z,100082.72
2022-07-30T21:56:28.821Z,100080.00
2022-07-30T21:58:58.181Z,100069.47
2022-07-30T22:01:29.271Z,100091.09
2022-07-30T22:04:07.928Z,100081.72
2022-07-30T22:06:40.036Z,100092.63
2022-07-30T22:09:19.509Z,100082.91
2022-07-30T22:12:01.473Z,100087.22
2022-07-30T22:14:31.640Z,100075.72
2022-07-30T22:17:04.404Z,100085.63
2022-07-30T22:19:33.997Z,100068.94
2022-07-30T22:22:26.054Z,100090.66
2022-07-30T22:24:52.451Z,100089.50
2022-07-30T22:27:22.271Z,100093.16
2022-07-30T22:29:51.464Z,100098.34
2022-07-30T22:32:27.330Z,100091.41
2022-07-30T22:37:46.633Z,100107.19
2022-07-30T22:40:17.203Z,100100.44
2022-07-30T22:42:50.106Z,100096.34
2022-07-30T22:45:34.063Z,100098.50
2022-07-30T22:48:11.409Z,100104.41
2022-07-30T22:50:41.043Z,100102.50
2022-07-30T22:53:23.357Z,100096.59
2022-07-30T22:55:59.738Z,100086.34
2022-07-30T22:58:29.781Z,100111.22
2022-07-30T23:00:59.178Z,100095.94
2022-07-30T23:03:30.437Z,100115.97
2022-07-30T23:06:00.078Z,100109.25
2022-07-30T23:08:30.956Z,100116.28
2022-07-30T23:11:01.140Z,100124.34
2022-07-30T23:12:28.913Z,100105.09
2022-07-30T23:13:31.866Z,100115.94
2022-07-30T23:16:01.263Z,100098.63
2022-07-30T23:18:32.426Z,100113.13
2022-07-30T23:21:02.280Z,100110.09
2022-07-30T23:23:35.174Z,100115.84
2022-07-30T23:26:04.864Z,100112.13
2022-07-30T23:28:34.177Z,100116.25
2022-07-30T23:31:03.560Z,100095.56
2022-07-30T23:33:34.828Z,100093.78
2022-07-30T23:36:07.049Z,100108.88
2022-07-30T23:38:36.562Z,100108.94
2022-07-30T23:41:06.387Z,100106.41
2022-07-30T23:43:36.004Z,100106.75
2022-07-30T23:46:06.206Z,100108.69
2022-07-30T23:48:42.474Z,100111.03
2022-07-30T23:51:11.666Z,100112.53
2022-07-30T23:53:40.820Z,100122.00
2022-07-30T23:56:15.935Z,100109.88
2022-07-30T23:58:45.547Z,100120.28
